sensor_id;sensor_type;location;lat;lon;timestamp;temperature;humidity
21602;DHT22;10963;50.934;4.668;2022-11-13T00:01:23;8.50;99.90
21602;DHT22;10963;50.934;4.668;2022-11-13T00:03:49;8.60;99.90
21602;DHT22;10963;50.934;4.668;2022-11-13T00:06:19;8.70;99.90
21602;DHT22;10963;50.934;4.668;2022-11-13T00:08:45;8.60;99.90
21602;DHT22;10963;50.934;4.668;2022-11-13T00:11:17;8.40;99.90
21602;DHT22;10963;50.934;4.668;2022-11-13T00:13:46;8.30;99.90
21602;DHT22;10963;50.934;4.668;2022-11-13T00:16:18;8.30;99.90
21602;DHT22;10963;50.934;4.668;2022-11-13T00:18:49;8.40;99.90
21602;DHT22;10963;50.934;4.668;2022-11-13T00:21:21;8.30;99.90
21602;DHT22;10963;50.934;4.668;2022-11-13T00:23:47;8.30;99.90
21602;DHT22;10963;50.934;4.668;2022-11-13T00:26:18;8.20;99.90
21602;DHT22;10963;50.934;4.668;2022-11-13T00:28:50;8.20;99.90
21602;DHT22;10963;50.934;4.668;2022-11-13T00:31:19;8.10;99.90
21602;DHT22;10963;50.934;4.668;2022-11-13T00:33:47;8.10;99.90
21602;DHT22;10963;50.934;4.668;2022-11-13T00:36:19;8.10;99.90
21602;DHT22;10963;50.934;4.668;2022-11-13T00:38:48;8.00;99.90
21602;DHT22;10963;50.934;4.668;2022-11-13T00:41:13;8.10;99.90
21602;DHT22;10963;50.934;4.668;2022-11-13T00:43:40;7.90;99.90
21602;DHT22;10963;50.934;4.668;2022-11-13T00:46:09;7.90;99.90
21602;DHT22;10963;50.934;4.668;2022-11-13T00:48:37;7.90;99.90
21602;DHT22;10963;50.934;4.668;2022-11-13T00:51:04;7.90;99.90
21602;DHT22;10963;50.934;4.668;2022-11-13T00:53:30;7.90;99.90
21602;DHT22;10963;50.934;4.668;2022-11-13T00:55:58;7.90;99.90
21602;DHT22;10963;50.934;4.668;2022-11-13T00:58:27;7.80;99.90
21602;DHT22;10963;50.934;4.668;2022-11-13T01:00:53;7.90;99.90
21602;DHT22;10963;50.934;4.668;2022-11-13T01:03:19;8.00;99.90
21602;DHT22;10963;50.934;4.668;2022-11-13T01:05:45;8.00;99.90
21602;DHT22;10963;50.934;4.668;2022-11-13T01:08:13;8.00;99.90
21602;DHT22;10963;50.934;4.668;2022-11-13T01:10:45;8.00;99.90
21602;DHT22;10963;50.934;4.668;2022-11-13T01:13:14;7.90;99.90
21602;DHT22;10963;50.934;4.668;2022-11-13T01:15:43;8.00;99.90
21602;DHT22;10963;50.934;4.668;2022-11-13T01:18:10;8.00;99.90
21602;DHT22;10963;50.934;4.668;2022-11-13T01:20:36;8.00;99.90
21602;DHT22;10963;50.934;4.668;2022-11-13T01:23:07;8.00;99.90
21602;DHT22;10963;50.934;4.668;2022-11-13T01:25:32;8.00;99.90
21602;DHT22;10963;50.934;4.668;2022-11-13T01:28:00;8.00;99.90
21602;DHT22;10963;50.934;4.668;2022-11-13T01:30:28;8.00;99.90
21602;DHT22;10963;50.934;4.668;2022-11-13T01:32:54;7.90;99.90
21602;DHT22;10963;50.934;4.668;2022-11-13T01:35:22;7.90;99.90
21602;DHT22;10963;50.934;4.668;2022-11-13T01:37:47;7.80;99.90
21602;DHT22;10963;50.934;4.668;2022-11-13T01:40:15;7.80;99.90
21602;DHT22;10963;50.934;4.668;2022-11-13T01:42:43;7.90;99.90
21602;DHT22;10963;50.934;4.668;2022-11-13T01:48:12;7.90;99.90
21602;DHT22;10963;50.934;4.668;2022-11-13T01:50:38;7.90;99.90
21602;DHT22;10963;50.934;4.668;2022-11-13T01:53:04;7.90;99.90
21602;DHT22;10963;50.934;4.668;2022-11-13T01:55:30;7.90;99.90
21602;DHT22;10963;50.934;4.668;2022-11-13T01:57:56;7.80;99.90
21602;DHT22;10963;50.934;4.668;2022-11-13T02:00:24;7.80;99.90
21602;DHT22;10963;50.934;4.668;2022-11-13T02:02:55;7.70;99.90
21602;DHT22;10963;50.934;4.668;2022-11-13T02:05:20;7.60;99.90
21602;DHT22;10963;50.934;4.668;2022-11-13T02:07:48;7.60;99.90
21602;DHT22;10963;50.934;4.668;2022-11-13T02:10:15;7.60;99.90
21602;DHT22;10963;50.934;4.668;2022-11-13T02:12:42;7.70;99.90
21602;DHT22;10963;50.934;4.668;2022-11-13T02:15:10;7.70;99.90
21602;DHT22;10963;50.934;4.668;2022-11-13T02:17:54;7.70;99.90
21602;DHT22;10963;50.934;4.668;2022-11-13T02:20:29;7.70;99.90
21602;DHT22;10963;50.934;4.668;2022-11-13T02:23:30;7.70;99.90
21602;DHT22;10963;50.934;4.668;2022-11-13T02:26:02;7.70;99.90
21602;DHT22;10963;50.934;4.668;2022-11-13T02:28:28;7.60;99.90
21602;DHT22;10963;50.934;4.668;2022-11-13T02:30:56;7.50;99.90
21602;DHT22;10963;50.934;4.668;2022-11-13T02:33:31;7.60;99.90
21602;DHT22;10963;50.934;4.668;2022-11-13T02:35:57;7.60;99.90
21602;DHT22;10963;50.934;4.668;2022-11-13T02:38:26;7.50;99.90
21602;DHT22;10963;50.934;4.668;2022-11-13T02:40:53;7.40;99.90
21602;DHT22;10963;50.934;4.668;2022-11-13T02:43:21;7.30;99.90
21602;DHT22;10963;50.934;4.668;2022-11-13T02:45:47;7.30;99.90
21602;DHT22;10963;50.934;4.668;2022-11-13T02:48:15;7.30;99.90
21602;DHT22;10963;50.934;4.668;2022-11-13T02:50:41;7.30;99.90
21602;DHT22;10963;50.934;4.668;2022-11-13T02:53:06;7.30;99.90
21602;DHT22;10963;50.934;4.668;2022-11-13T02:55:32;7.30;99.90
21602;DHT22;10963;50.934;4.668;2022-11-13T02:58:00;7.40;99.90
21602;DHT22;10963;50.934;4.668;2022-11-13T03:00:29;7.40;99.90
21602;DHT22;10963;50.934;4.668;2022-11-13T03:02:54;7.40;99.90
21602;DHT22;10963;50.934;4.668;2022-11-13T03:05:21;7.40;99.90
21602;DHT22;10963;50.934;4.668;2022-11-13T03:07:47;7.40;99.90
21602;DHT22;10963;50.934;4.668;2022-11-13T03:10:13;7.40;99.90
21602;DHT22;10963;50.934;4.668;2022-11-13T03:12:44;7.30;99.90
21602;DHT22;10963;50.934;4.668;2022-11-13T03:15:10;7.20;99.90
21602;DHT22;10963;50.934;4.668;2022-11-13T03:17:40;7.20;99.90
21602;DHT22;10963;50.934;4.668;2022-11-13T03:20:08;7.10;99.90
21602;DHT22;10963;50.934;4.668;2022-11-13T03:22:34;7.10;99.90
21602;DHT22;10963;50.934;4.668;2022-11-13T03:25:00;7.00;99.90
21602;DHT22;10963;50.934;4.668;2022-11-13T03:27:29;7.00;99.90
21602;DHT22;10963;50.934;4.668;2022-11-13T03:29:56;7.00;99.90
21602;DHT22;10963;50.934;4.668;2022-11-13T03:32:23;7.00;99.90
21602;DHT22;10963;50.934;4.668;2022-11-13T03:34:49;7.10;99.90
21602;DHT22;10963;50.934;4.668;2022-11-13T03:37:18;7.20;99.90
21602;DHT22;10963;50.934;4.668;2022-11-13T03:39:47;7.00;99.90
21602;DHT22;10963;50.934;4.668;2022-11-13T03:42:12;7.00;99.90
21602;DHT22;10963;50.934;4.668;2022-11-13T03:44:38;6.90;99.90
21602;DHT22;10963;50.934;4.668;2022-11-13T03:47:04;6.80;99.90
21602;DHT22;10963;50.934;4.668;2022-11-13T03:49:32;6.70;99.90
21602;DHT22;10963;50.934;4.668;2022-11-13T03:52:00;6.70;99.90
21602;DHT22;10963;50.934;4.668;2022-11-13T03:54:25;6.60;99.90
21602;DHT22;10963;50.934;4.668;2022-11-13T03:56:53;6.60;99.90
21602;DHT22;10963;50.934;4.668;2022-11-13T03:59:21;6.80;99.90
21602;DHT22;10963;50.934;4.668;2022-11-13T04:01:49;6.80;99.90
21602;DHT22;10963;50.934;4.668;2022-11-13T04:04:17;6.80;99.90
21602;DHT22;10963;50.934;4.668;2022-11-13T04:06:45;6.70;99.90
21602;DHT22;10963;50.934;4.668;2022-11-13T04:09:11;6.60;99.90
21602;DHT22;10963;50.934;4.668;2022-11-13T04:11:41;6.60;99.90
21602;DHT22;10963;50.934;4.668;2022-11-13T04:14:09;6.60;99.90
21602;DHT22;10963;50.934;4.668;2022-11-13T04:16:34;6.60;99.90
21602;DHT22;10963;50.934;4.668;2022-11-13T04:19:03;6.50;99.90
21602;DHT22;10963;50.934;4.668;2022-11-13T04:21:31;6.40;99.90
21602;DHT22;10963;50.934;4.668;2022-11-13T04:23:56;6.40;99.90
21602;DHT22;10963;50.934;4.668;2022-11-13T04:26:24;6.40;99.90
21602;DHT22;10963;50.934;4.668;2022-11-13T04:28:50;6.50;99.90
21602;DHT22;10963;50.934;4.668;2022-11-13T04:31:18;6.50;99.90
21602;DHT22;10963;50.934;4.668;2022-11-13T04:33:44;6.40;99.90
21602;DHT22;10963;50.934;4.668;2022-11-13T04:36:10;6.30;99.90
21602;DHT22;10963;50.934;4.668;2022-11-13T04:38:35;6.20;99.90
21602;DHT22;10963;50.934;4.668;2022-11-13T04:41:03;6.20;99.90
21602;DHT22;10963;50.934;4.668;2022-11-13T04:43:50;6.10;99.90
21602;DHT22;10963;50.934;4.668;2022-11-13T04:46:16;6.20;99.90
21602;DHT22;10963;50.934;4.668;2022-11-13T04:48:41;6.30;99.90
21602;DHT22;10963;50.934;4.668;2022-11-13T04:51:07;6.30;99.90
21602;DHT22;10963;50.934;4.668;2022-11-13T04:53:36;6.30;99.90
21602;DHT22;10963;50.934;4.668;2022-11-13T04:56:01;6.30;99.90
21602;DHT22;10963;50.934;4.668;2022-11-13T04:58:29;6.30;99.90
21602;DHT22;10963;50.934;4.668;2022-11-13T05:00:57;6.40;99.90
21602;DHT22;10963;50.934;4.668;2022-11-13T05:03:26;6.30;99.90
21602;DHT22;10963;50.934;4.668;2022-11-13T05:06:01;6.20;99.90
21602;DHT22;10963;50.934;4.668;2022-11-13T05:08:27;6.20;99.90
21602;DHT22;10963;50.934;4.668;2022-11-13T05:10:53;6.10;99.90
21602;DHT22;10963;50.934;4.668;2022-11-13T05:13:19;6.10;99.90
21602;DHT22;10963;50.934;4.668;2022-11-13T05:15:47;6.10;99.90
21602;DHT22;10963;50.934;4.668;2022-11-13T05:18:13;6.10;99.90
21602;DHT22;10963;50.934;4.668;2022-11-13T05:20:38;6.10;99.90
21602;DHT22;10963;50.934;4.668;2022-11-13T05:23:04;6.10;99.90
21602;DHT22;10963;50.934;4.668;2022-11-13T05:25:32;6.10;99.90
21602;DHT22;10963;50.934;4.668;2022-11-13T05:28:02;5.90;99.90
21602;DHT22;10963;50.934;4.668;2022-11-13T05:30:28;6.00;99.90
21602;DHT22;10963;50.934;4.668;2022-11-13T05:32:56;6.00;99.90
21602;DHT22;10963;50.934;4.668;2022-11-13T05:35:24;5.90;99.90
21602;DHT22;10963;50.934;4.668;2022-11-13T05:37:50;5.90;99.90
21602;DHT22;10963;50.934;4.668;2022-11-13T05:40:18;5.70;99.90
21602;DHT22;10963;50.934;4.668;2022-11-13T05:42:46;5.60;99.90
21602;DHT22;10963;50.934;4.668;2022-11-13T05:45:17;5.60;99.90
21602;DHT22;10963;50.934;4.668;2022-11-13T05:47:46;5.50;99.90
21602;DHT22;10963;50.934;4.668;2022-11-13T05:50:11;5.60;99.90
21602;DHT22;10963;50.934;4.668;2022-11-13T05:52:37;5.60;99.90
21602;DHT22;10963;50.934;4.668;2022-11-13T05:55:03;5.60;99.90
21602;DHT22;10963;50.934;4.668;2022-11-13T05:57:29;5.50;99.90
21602;DHT22;10963;50.934;4.668;2022-11-13T05:59:57;5.50;99.90
21602;DHT22;10963;50.934;4.668;2022-11-13T06:02:23;5.60;99.90
21602;DHT22;10963;50.934;4.668;2022-11-13T06:04:49;5.50;99.90
21602;DHT22;10963;50.934;4.668;2022-11-13T06:07:16;5.50;99.90
21602;DHT22;10963;50.934;4.668;2022-11-13T06:09:41;5.50;99.90
21602;DHT22;10963;50.934;4.668;2022-11-13T06:12:09;5.50;99.90
21602;DHT22;10963;50.934;4.668;2022-11-13T06:14:37;5.60;99.90
21602;DHT22;10963;50.934;4.668;2022-11-13T06:17:03;5.60;99.90
21602;DHT22;10963;50.934;4.668;2022-11-13T06:19:31;5.60;99.90
21602;DHT22;10963;50.934;4.668;2022-11-13T06:21:59;5.60;99.90
21602;DHT22;10963;50.934;4.668;2022-11-13T06:24:29;5.70;99.90
21602;DHT22;10963;50.934;4.668;2022-11-13T06:26:55;5.70;99.90
21602;DHT22;10963;50.934;4.668;2022-11-13T06:29:27;5.60;99.90
21602;DHT22;10963;50.934;4.668;2022-11-13T06:31:54;5.60;99.90
21602;DHT22;10963;50.934;4.668;2022-11-13T06:34:20;5.70;99.90
21602;DHT22;10963;50.934;4.668;2022-11-13T06:36:46;5.60;99.90
21602;DHT22;10963;50.934;4.668;2022-11-13T06:39:11;5.60;99.90
21602;DHT22;10963;50.934;4.668;2022-11-13T06:41:38;5.60;99.90
21602;DHT22;10963;50.934;4.668;2022-11-13T06:44:06;5.60;99.90
21602;DHT22;10963;50.934;4.668;2022-11-13T06:46:31;5.60;99.90
21602;DHT22;10963;50.934;4.668;2022-11-13T06:48:57;5.60;99.90
21602;DHT22;10963;50.934;4.668;2022-11-13T06:51:25;5.50;99.90
21602;DHT22;10963;50.934;4.668;2022-11-13T06:53:52;5.50;99.90
21602;DHT22;10963;50.934;4.668;2022-11-13T06:56:18;5.50;99.90
21602;DHT22;10963;50.934;4.668;2022-11-13T06:58:44;5.50;99.90
21602;DHT22;10963;50.934;4.668;2022-11-13T07:01:16;5.50;99.90
21602;DHT22;10963;50.934;4.668;2022-11-13T07:03:42;5.50;99.90
21602;DHT22;10963;50.934;4.668;2022-11-13T07:06:14;5.50;99.90
21602;DHT22;10963;50.934;4.668;2022-11-13T07:08:45;5.50;99.90
21602;DHT22;10963;50.934;4.668;2022-11-13T07:11:17;5.50;99.90
21602;DHT22;10963;50.934;4.668;2022-11-13T07:13:43;5.60;99.90
21602;DHT22;10963;50.934;4.668;2022-11-13T07:16:14;5.70;99.90
21602;DHT22;10963;50.934;4.668;2022-11-13T07:18:51;5.70;99.90
21602;DHT22;10963;50.934;4.668;2022-11-13T07:21:21;5.60;99.90
21602;DHT22;10963;50.934;4.668;2022-11-13T07:23:48;5.50;99.90
21602;DHT22;10963;50.934;4.668;2022-11-13T07:26:14;5.60;99.90
21602;DHT22;10963;50.934;4.668;2022-11-13T07:28:42;5.60;99.90
21602;DHT22;10963;50.934;4.668;2022-11-13T07:31:08;5.60;99.90
21602;DHT22;10963;50.934;4.668;2022-11-13T07:33:38;5.60;99.90
21602;DHT22;10963;50.934;4.668;2022-11-13T07:36:05;5.60;99.90
21602;DHT22;10963;50.934;4.668;2022-11-13T07:38:35;5.60;99.90
21602;DHT22;10963;50.934;4.668;2022-11-13T07:41:03;5.60;99.90
21602;DHT22;10963;50.934;4.668;2022-11-13T07:43:29;5.60;99.90
21602;DHT22;10963;50.934;4.668;2022-11-13T07:45:57;5.60;99.90
21602;DHT22;10963;50.934;4.668;2022-11-13T07:48:28;5.70;99.90
21602;DHT22;10963;50.934;4.668;2022-11-13T07:50:54;5.80;99.90
21602;DHT22;10963;50.934;4.668;2022-11-13T07:53:20;5.80;99.90
21602;DHT22;10963;50.934;4.668;2022-11-13T07:55:46;5.90;99.90
21602;DHT22;10963;50.934;4.668;2022-11-13T07:58:14;5.90;99.90
21602;DHT22;10963;50.934;4.668;2022-11-13T08:00:40;6.00;99.90
21602;DHT22;10963;50.934;4.668;2022-11-13T08:03:08;6.00;99.90
21602;DHT22;10963;50.934;4.668;2022-11-13T08:05:37;6.10;99.90
21602;DHT22;10963;50.934;4.668;2022-11-13T08:08:04;6.10;99.90
21602;DHT22;10963;50.934;4.668;2022-11-13T08:10:30;6.10;99.90
21602;DHT22;10963;50.934;4.668;2022-11-13T08:13:02;6.20;99.90
21602;DHT22;10963;50.934;4.668;2022-11-13T08:15:31;6.20;99.90
21602;DHT22;10963;50.934;4.668;2022-11-13T08:18:01;6.20;99.90
21602;DHT22;10963;50.934;4.668;2022-11-13T08:20:28;6.30;99.90
21602;DHT22;10963;50.934;4.668;2022-11-13T08:22:58;6.40;99.90
21602;DHT22;10963;50.934;4.668;2022-11-13T08:25:24;6.50;99.90
21602;DHT22;10963;50.934;4.668;2022-11-13T08:27:54;6.60;99.90
21602;DHT22;10963;50.934;4.668;2022-11-13T08:30:23;6.70;99.90
21602;DHT22;10963;50.934;4.668;2022-11-13T08:32:49;6.90;99.90
21602;DHT22;10963;50.934;4.668;2022-11-13T08:35:16;7.00;99.90
21602;DHT22;10963;50.934;4.668;2022-11-13T08:37:41;7.10;99.90
21602;DHT22;10963;50.934;4.668;2022-11-13T08:40:08;7.20;99.90
21602;DHT22;10963;50.934;4.668;2022-11-13T08:42:36;7.20;99.90
21602;DHT22;10963;50.934;4.668;2022-11-13T08:45:03;7.30;99.90
21602;DHT22;10963;50.934;4.668;2022-11-13T08:47:31;7.40;99.90
21602;DHT22;10963;50.934;4.668;2022-11-13T08:49:59;7.40;99.90
21602;DHT22;10963;50.934;4.668;2022-11-13T08:52:29;7.50;99.90
21602;DHT22;10963;50.934;4.668;2022-11-13T08:54:57;7.60;99.90
21602;DHT22;10963;50.934;4.668;2022-11-13T08:57:28;7.70;99.90
21602;DHT22;10963;50.934;4.668;2022-11-13T08:59:53;7.80;99.90
21602;DHT22;10963;50.934;4.668;2022-11-13T09:02:21;7.90;99.90
21602;DHT22;10963;50.934;4.668;2022-11-13T09:04:47;8.00;99.90
21602;DHT22;10963;50.934;4.668;2022-11-13T09:07:15;8.10;99.90
21602;DHT22;10963;50.934;4.668;2022-11-13T09:09:43;8.10;99.90
21602;DHT22;10963;50.934;4.668;2022-11-13T09:12:11;8.30;99.90
21602;DHT22;10963;50.934;4.668;2022-11-13T09:14:42;8.60;99.90
21602;DHT22;10963;50.934;4.668;2022-11-13T09:17:08;8.70;99.90
21602;DHT22;10963;50.934;4.668;2022-11-13T09:19:36;8.90;99.90
21602;DHT22;10963;50.934;4.668;2022-11-13T09:22:01;9.10;99.90
21602;DHT22;10963;50.934;4.668;2022-11-13T09:24:27;9.20;99.90
21602;DHT22;10963;50.934;4.668;2022-11-13T09:26:55;9.30;99.90
21602;DHT22;10963;50.934;4.668;2022-11-13T09:29:21;9.50;99.90
21602;DHT22;10963;50.934;4.668;2022-11-13T09:31:50;9.70;99.90
21602;DHT22;10963;50.934;4.668;2022-11-13T09:34:16;9.80;99.90
21602;DHT22;10963;50.934;4.668;2022-11-13T09:36:44;9.90;99.90
21602;DHT22;10963;50.934;4.668;2022-11-13T09:39:10;10.00;99.90
21602;DHT22;10963;50.934;4.668;2022-11-13T09:42:04;10.00;99.90
21602;DHT22;10963;50.934;4.668;2022-11-13T09:44:42;10.00;99.90
21602;DHT22;10963;50.934;4.668;2022-11-13T09:47:19;10.20;99.90
21602;DHT22;10963;50.934;4.668;2022-11-13T09:49:51;10.40;99.90
21602;DHT22;10963;50.934;4.668;2022-11-13T09:52:26;10.50;99.90
21602;DHT22;10963;50.934;4.668;2022-11-13T09:54:53;10.80;99.90
21602;DHT22;10963;50.934;4.668;2022-11-13T09:57:34;11.10;99.90
21602;DHT22;10963;50.934;4.668;2022-11-13T10:00:17;11.10;99.90
21602;DHT22;10963;50.934;4.668;2022-11-13T10:05:59;11.30;99.90
21602;DHT22;10963;50.934;4.668;2022-11-13T10:08:38;11.50;99.90
21602;DHT22;10963;50.934;4.668;2022-11-13T10:13:50;11.70;99.90
21602;DHT22;10963;50.934;4.668;2022-11-13T10:16:42;11.80;99.90
21602;DHT22;10963;50.934;4.668;2022-11-13T10:20:04;11.90;99.90
21602;DHT22;10963;50.934;4.668;2022-11-13T10:22:29;12.00;99.90
21602;DHT22;10963;50.934;4.668;2022-11-13T10:25:09;12.00;99.90
21602;DHT22;10963;50.934;4.668;2022-11-13T10:27:37;12.10;99.90
21602;DHT22;10963;50.934;4.668;2022-11-13T10:30:15;12.20;99.90
21602;DHT22;10963;50.934;4.668;2022-11-13T10:32:42;12.30;99.90
21602;DHT22;10963;50.934;4.668;2022-11-13T10:35:42;12.50;99.90
21602;DHT22;10963;50.934;4.668;2022-11-13T10:41:27;13.10;99.90
21602;DHT22;10963;50.934;4.668;2022-11-13T10:43:57;13.20;99.90
21602;DHT22;10963;50.934;4.668;2022-11-13T10:46:25;13.10;99.90
21602;DHT22;10963;50.934;4.668;2022-11-13T10:48:52;13.20;99.90
21602;DHT22;10963;50.934;4.668;2022-11-13T10:51:22;13.10;99.90
21602;DHT22;10963;50.934;4.668;2022-11-13T10:53:53;13.10;99.90
21602;DHT22;10963;50.934;4.668;2022-11-13T10:59:13;13.20;99.90
21602;DHT22;10963;50.934;4.668;2022-11-13T11:01:42;13.30;99.90
21602;DHT22;10963;50.934;4.668;2022-11-13T11:04:23;13.50;99.90
21602;DHT22;10963;50.934;4.668;2022-11-13T11:06:52;13.60;99.90
21602;DHT22;10963;50.934;4.668;2022-11-13T11:09:31;13.70;99.90
21602;DHT22;10963;50.934;4.668;2022-11-13T11:22:39;13.80;99.90
21602;DHT22;10963;50.934;4.668;2022-11-13T11:25:16;13.90;99.90
21602;DHT22;10963;50.934;4.668;2022-11-13T11:27:46;13.90;99.90
21602;DHT22;10963;50.934;4.668;2022-11-13T11:30:30;13.90;99.90
21602;DHT22;10963;50.934;4.668;2022-11-13T11:38:18;14.00;99.90
21602;DHT22;10963;50.934;4.668;2022-11-13T11:40:50;14.00;99.90
21602;DHT22;10963;50.934;4.668;2022-11-13T11:45:49;14.00;99.90
21602;DHT22;10963;50.934;4.668;2022-11-13T11:48:28;14.20;99.90
21602;DHT22;10963;50.934;4.668;2022-11-13T11:51:24;14.40;99.90
21602;DHT22;10963;50.934;4.668;2022-11-13T12:07:15;14.60;99.90
21602;DHT22;10963;50.934;4.668;2022-11-13T12:15:23;15.10;99.90
21602;DHT22;10963;50.934;4.668;2022-11-13T12:18:24;15.10;99.90
21602;DHT22;10963;50.934;4.668;2022-11-13T12:20:57;15.20;99.90
21602;DHT22;10963;50.934;4.668;2022-11-13T12:36:32;15.70;99.90
21602;DHT22;10963;50.934;4.668;2022-11-13T12:42:02;15.80;99.90
21602;DHT22;10963;50.934;4.668;2022-11-13T12:44:51;15.80;99.90
21602;DHT22;10963;50.934;4.668;2022-11-13T12:47:21;15.80;99.90
21602;DHT22;10963;50.934;4.668;2022-11-13T12:50:04;15.90;99.90
21602;DHT22;10963;50.934;4.668;2022-11-13T12:52:30;16.00;99.90
21602;DHT22;10963;50.934;4.668;2022-11-13T12:55:25;15.90;99.90
21602;DHT22;10963;50.934;4.668;2022-11-13T12:57:54;16.00;99.90
21602;DHT22;10963;50.934;4.668;2022-11-13T13:00:25;16.00;99.90
21602;DHT22;10963;50.934;4.668;2022-11-13T13:08:34;16.30;99.90
21602;DHT22;10963;50.934;4.668;2022-11-13T13:11:37;16.40;99.90
21602;DHT22;10963;50.934;4.668;2022-11-13T13:16:43;16.60;99.90
21602;DHT22;10963;50.934;4.668;2022-11-13T13:19:30;16.60;99.90
21602;DHT22;10963;50.934;4.668;2022-11-13T13:21:56;16.70;99.90
21602;DHT22;10963;50.934;4.668;2022-11-13T13:26:53;16.70;99.90
21602;DHT22;10963;50.934;4.668;2022-11-13T13:29:23;16.70;99.90
21602;DHT22;10963;50.934;4.668;2022-11-13T13:37:21;16.60;99.90
21602;DHT22;10963;50.934;4.668;2022-11-13T13:43:02;16.70;99.90
21602;DHT22;10963;50.934;4.668;2022-11-13T13:46:17;16.70;99.90
21602;DHT22;10963;50.934;4.668;2022-11-13T13:48:45;16.80;99.90
21602;DHT22;10963;50.934;4.668;2022-11-13T13:51:28;16.80;99.90
21602;DHT22;10963;50.934;4.668;2022-11-13T13:53:57;16.80;99.90
21602;DHT22;10963;50.934;4.668;2022-11-13T13:56:24;16.70;99.90
21602;DHT22;10963;50.934;4.668;2022-11-13T13:58:51;16.80;99.90
21602;DHT22;10963;50.934;4.668;2022-11-13T14:01:36;16.80;99.90
21602;DHT22;10963;50.934;4.668;2022-11-13T14:04:24;16.90;99.90
21602;DHT22;10963;50.934;4.668;2022-11-13T14:06:58;16.80;99.90
21602;DHT22;10963;50.934;4.668;2022-11-13T14:09:29;16.80;99.90
21602;DHT22;10963;50.934;4.668;2022-11-13T14:11:59;16.80;99.90
21602;DHT22;10963;50.934;4.668;2022-11-13T14:14:28;16.80;99.90
21602;DHT22;10963;50.934;4.668;2022-11-13T14:16:59;16.90;99.90
21602;DHT22;10963;50.934;4.668;2022-11-13T14:19:26;16.80;99.90
21602;DHT22;10963;50.934;4.668;2022-11-13T14:22:02;16.70;99.90
21602;DHT22;10963;50.934;4.668;2022-11-13T14:24:53;16.70;99.90
21602;DHT22;10963;50.934;4.668;2022-11-13T14:27:25;16.70;99.90
21602;DHT22;10963;50.934;4.668;2022-11-13T14:29:54;16.80;99.90
21602;DHT22;10963;50.934;4.668;2022-11-13T14:32:30;16.70;99.90
21602;DHT22;10963;50.934;4.668;2022-11-13T14:34:59;16.70;99.90
21602;DHT22;10963;50.934;4.668;2022-11-13T14:37:33;16.60;99.90
21602;DHT22;10963;50.934;4.668;2022-11-13T14:40:13;16.60;99.90
21602;DHT22;10963;50.934;4.668;2022-11-13T14:42:49;16.60;99.90
21602;DHT22;10963;50.934;4.668;2022-11-13T14:45:22;16.50;99.90
21602;DHT22;10963;50.934;4.668;2022-11-13T14:48:02;16.50;99.90
21602;DHT22;10963;50.934;4.668;2022-11-13T14:50:36;16.50;99.90
21602;DHT22;10963;50.934;4.668;2022-11-13T14:53:06;16.40;99.90
21602;DHT22;10963;50.934;4.668;2022-11-13T14:55:37;16.30;99.90
21602;DHT22;10963;50.934;4.668;2022-11-13T14:58:04;16.30;99.90
21602;DHT22;10963;50.934;4.668;2022-11-13T15:00:37;16.20;99.90
21602;DHT22;10963;50.934;4.668;2022-11-13T15:03:04;16.20;99.90
21602;DHT22;10963;50.934;4.668;2022-11-13T15:05:31;16.20;99.90
21602;DHT22;10963;50.934;4.668;2022-11-13T15:08:00;16.10;99.90
21602;DHT22;10963;50.934;4.668;2022-11-13T15:10:30;16.00;99.90
21602;DHT22;10963;50.934;4.668;2022-11-13T15:12:56;16.00;99.90
21602;DHT22;10963;50.934;4.668;2022-11-13T15:15:28;15.90;99.90
21602;DHT22;10963;50.934;4.668;2022-11-13T15:17:58;15.80;99.90
21602;DHT22;10963;50.934;4.668;2022-11-13T15:20:28;15.80;99.90
21602;DHT22;10963;50.934;4.668;2022-11-13T15:22:57;15.70;99.90
21602;DHT22;10963;50.934;4.668;2022-11-13T15:25:24;15.60;99.90
21602;DHT22;10963;50.934;4.668;2022-11-13T15:27:50;15.50;99.90
21602;DHT22;10963;50.934;4.668;2022-11-13T15:30:16;15.40;99.90
21602;DHT22;10963;50.934;4.668;2022-11-13T15:32:43;15.30;99.90
21602;DHT22;10963;50.934;4.668;2022-11-13T15:35:18;15.20;99.90
21602;DHT22;10963;50.934;4.668;2022-11-13T15:37:44;15.10;99.90
21602;DHT22;10963;50.934;4.668;2022-11-13T15:40:12;15.00;99.90
21602;DHT22;10963;50.934;4.668;2022-11-13T15:42:38;14.90;99.90
21602;DHT22;10963;50.934;4.668;2022-11-13T15:45:05;14.70;99.90
21602;DHT22;10963;50.934;4.668;2022-11-13T15:47:35;14.60;99.90
21602;DHT22;10963;50.934;4.668;2022-11-13T15:50:02;14.40;99.90
21602;DHT22;10963;50.934;4.668;2022-11-13T15:52:32;14.20;99.90
21602;DHT22;10963;50.934;4.668;2022-11-13T15:54:59;14.10;99.90
21602;DHT22;10963;50.934;4.668;2022-11-13T15:57:28;13.90;99.90
21602;DHT22;10963;50.934;4.668;2022-11-13T15:59:54;13.80;99.90
21602;DHT22;10963;50.934;4.668;2022-11-13T16:02:21;13.70;99.90
21602;DHT22;10963;50.934;4.668;2022-11-13T16:04:47;13.50;99.90
21602;DHT22;10963;50.934;4.668;2022-11-13T16:07:20;13.40;99.90
21602;DHT22;10963;50.934;4.668;2022-11-13T16:09:47;13.20;99.90
21602;DHT22;10963;50.934;4.668;2022-11-13T16:12:16;13.10;99.90
21602;DHT22;10963;50.934;4.668;2022-11-13T16:14:43;13.00;99.90
21602;DHT22;10963;50.934;4.668;2022-11-13T16:17:19;12.90;99.90
21602;DHT22;10963;50.934;4.668;2022-11-13T16:19:52;12.80;99.90
21602;DHT22;10963;50.934;4.668;2022-11-13T16:22:23;12.70;99.90
21602;DHT22;10963;50.934;4.668;2022-11-13T16:24:49;12.60;99.90
21602;DHT22;10963;50.934;4.668;2022-11-13T16:27:26;12.50;99.90
21602;DHT22;10963;50.934;4.668;2022-11-13T16:29:53;12.40;99.90
21602;DHT22;10963;50.934;4.668;2022-11-13T16:32:19;12.40;99.90
21602;DHT22;10963;50.934;4.668;2022-11-13T16:34:45;12.40;99.90
21602;DHT22;10963;50.934;4.668;2022-11-13T16:37:18;12.20;99.90
21602;DHT22;10963;50.934;4.668;2022-11-13T16:39:44;12.10;99.90
21602;DHT22;10963;50.934;4.668;2022-11-13T16:42:11;12.10;99.90
21602;DHT22;10963;50.934;4.668;2022-11-13T16:44:38;11.90;99.90
21602;DHT22;10963;50.934;4.668;2022-11-13T16:47:21;11.80;99.90
21602;DHT22;10963;50.934;4.668;2022-11-13T16:49:47;11.80;99.90
21602;DHT22;10963;50.934;4.668;2022-11-13T16:52:13;11.70;99.90
21602;DHT22;10963;50.934;4.668;2022-11-13T16:54:39;11.60;99.90
21602;DHT22;10963;50.934;4.668;2022-11-13T16:57:04;11.60;99.90
21602;DHT22;10963;50.934;4.668;2022-11-13T16:59:32;11.50;99.90
21602;DHT22;10963;50.934;4.668;2022-11-13T17:02:01;11.50;99.90
21602;DHT22;10963;50.934;4.668;2022-11-13T17:04:26;11.50;99.90
21602;DHT22;10963;50.934;4.668;2022-11-13T17:06:54;11.40;99.90
21602;DHT22;10963;50.934;4.668;2022-11-13T17:09:23;11.40;99.90
21602;DHT22;10963;50.934;4.668;2022-11-13T17:11:53;11.30;99.90
21602;DHT22;10963;50.934;4.668;2022-11-13T17:14:18;11.30;99.90
21602;DHT22;10963;50.934;4.668;2022-11-13T17:16:44;11.10;99.90
21602;DHT22;10963;50.934;4.668;2022-11-13T17:19:12;11.10;99.90
21602;DHT22;10963;50.934;4.668;2022-11-13T17:21:41;10.90;99.90
21602;DHT22;10963;50.934;4.668;2022-11-13T17:24:12;10.80;99.90